createdAt,value
2023-01-18T00:00:37.709Z,1.60
2023-01-18T00:03:04.843Z,1.80
2023-01-18T00:05:31.489Z,1.80
2023-01-18T00:08:00.613Z,1.70
2023-01-18T00:10:27.257Z,1.60
2023-01-18T00:12:54.274Z,1.60
2023-01-18T00:15:21.011Z,1.60
2023-01-18T00:17:47.784Z,1.60
2023-01-18T00:20:15.032Z,1.50
2023-01-18T00:22:41.631Z,1.60
2023-01-18T00:25:11.339Z,1.40
2023-01-18T00:27:38.018Z,1.40
2023-01-18T00:30:05.152Z,1.30
2023-01-18T00:32:32.531Z,1.30
2023-01-18T00:35:00.564Z,1.40
2023-01-18T00:37:29.407Z,1.40
2023-01-18T00:39:58.190Z,1.60
2023-01-18T00:42:43.454Z,1.50
2023-01-18T00:45:12.493Z,1.50
2023-01-18T00:47:41.193Z,1.50
2023-01-18T00:50:08.184Z,1.40
2023-01-18T00:52:34.834Z,1.40
2023-01-18T00:55:02.166Z,1.30
2023-01-18T00:57:29.000Z,1.20
2023-01-18T00:59:55.533Z,1.60
2023-01-18T01:02:22.438Z,1.20
2023-01-18T01:05:10.294Z,1.20
2023-01-18T01:07:37.114Z,1.30
2023-01-18T01:10:09.723Z,1.30
2023-01-18T01:12:55.625Z,1.30
2023-01-18T01:15:41.276Z,1.10
2023-01-18T01:18:27.114Z,1.00
2023-01-18T01:21:12.420Z,1.10
2023-01-18T01:23:58.403Z,0.90
2023-01-18T01:26:25.225Z,1.10
2023-01-18T01:28:52.567Z,0.90
2023-01-18T01:31:20.122Z,1.30
2023-01-18T01:33:49.465Z,1.20
2023-01-18T01:36:20.424Z,0.90
2023-01-18T01:38:47.371Z,1.20
2023-01-18T01:41:16.502Z,1.30
2023-01-18T01:43:51.080Z,1.10
2023-01-18T01:46:22.076Z,1.10
2023-01-18T01:48:49.153Z,1.00
2023-01-18T01:51:18.302Z,1.10
2023-01-18T01:53:48.502Z,1.20
2023-01-18T01:56:15.397Z,1.00
2023-01-18T01:58:42.758Z,1.10
2023-01-18T02:01:12.013Z,1.20
2023-01-18T02:03:40.410Z,1.00
2023-01-18T02:06:13.385Z,1.00
2023-01-18T02:08:40.120Z,1.00
2023-01-18T02:11:06.731Z,1.10
2023-01-18T02:13:33.286Z,1.10
2023-01-18T02:16:12.926Z,0.90
2023-01-18T02:18:48.506Z,1.00
2023-01-18T02:21:25.555Z,1.00
2023-01-18T02:23:54.924Z,0.90
2023-01-18T02:26:46.607Z,1.00
2023-01-18T02:29:22.898Z,1.00
2023-01-18T02:32:04.523Z,0.90
2023-01-18T02:34:36.678Z,1.00
2023-01-18T02:37:21.477Z,1.00
2023-01-18T02:39:56.875Z,1.00
2023-01-18T02:42:45.011Z,0.80
2023-01-18T02:45:43.630Z,1.00
2023-01-18T02:48:10.532Z,1.00
2023-01-18T02:50:37.156Z,1.00
2023-01-18T02:53:03.748Z,0.90
2023-01-18T02:55:41.910Z,0.80
2023-01-18T02:58:11.521Z,0.90
2023-01-18T03:00:40.228Z,0.90
2023-01-18T03:03:08.266Z,0.80
2023-01-18T03:05:35.765Z,0.90
2023-01-18T03:08:06.069Z,0.80
2023-01-18T03:10:38.046Z,1.00
2023-01-18T03:13:25.456Z,0.70
2023-01-18T03:15:53.647Z,1.00
2023-01-18T03:18:33.585Z,0.80
2023-01-18T03:21:05.426Z,0.90
2023-01-18T03:23:42.585Z,0.90
2023-01-18T03:26:10.813Z,1.00
2023-01-18T03:28:58.369Z,0.90
2023-01-18T03:31:49.892Z,1.00
2023-01-18T03:34:30.380Z,0.80
2023-01-18T03:36:58.880Z,0.90
2023-01-18T03:39:36.666Z,0.80
2023-01-18T03:42:08.391Z,0.80
2023-01-18T03:44:34.955Z,0.80
2023-01-18T03:47:04.936Z,1.00
2023-01-18T03:49:32.425Z,1.00
2023-01-18T03:51:58.972Z,0.90
2023-01-18T03:54:25.517Z,1.00
2023-01-18T03:57:03.254Z,0.80
2023-01-18T03:59:32.404Z,0.90
2023-01-18T04:01:59.059Z,0.60
2023-01-18T04:04:30.397Z,0.80
2023-01-18T04:06:57.926Z,0.80
2023-01-18T04:09:27.044Z,0.90
2023-01-18T04:11:53.681Z,0.80
2023-01-18T04:14:20.339Z,0.70
2023-01-18T04:16:49.346Z,0.80
2023-01-18T04:19:16.499Z,0.70
2023-01-18T04:21:43.066Z,0.80
2023-01-18T04:24:11.249Z,0.70
2023-01-18T04:26:38.534Z,0.90
2023-01-18T04:29:09.013Z,0.90
2023-01-18T04:31:37.792Z,0.90
2023-01-18T04:34:06.808Z,0.70
2023-01-18T04:36:33.399Z,0.70
2023-01-18T04:39:00.036Z,0.80
2023-01-18T04:41:29.200Z,0.80
2023-01-18T04:43:55.845Z,0.70
2023-01-18T04:46:22.436Z,0.70
2023-01-18T04:48:50.527Z,0.70
2023-01-18T04:51:17.741Z,0.40
2023-01-18T04:53:44.915Z,0.80
2023-01-18T04:56:11.819Z,0.60
2023-01-18T04:58:38.471Z,0.70
2023-01-18T05:01:06.591Z,0.50
2023-01-18T05:03:38.112Z,0.60
2023-01-18T05:06:06.079Z,0.60
2023-01-18T05:08:32.789Z,0.50
2023-01-18T05:11:06.228Z,0.70
2023-01-18T05:13:33.130Z,0.50
2023-01-18T05:16:06.112Z,0.70
2023-01-18T05:18:32.951Z,0.80
2023-01-18T05:20:59.598Z,0.60
2023-01-18T05:23:26.230Z,0.50
2023-01-18T05:25:56.504Z,0.70
2023-01-18T05:28:23.731Z,0.40
2023-01-18T05:30:51.278Z,0.50
2023-01-18T05:33:19.999Z,0.60
2023-01-18T05:35:52.072Z,0.50
2023-01-18T05:38:19.069Z,0.50
2023-01-18T05:40:50.065Z,0.60
2023-01-18T05:43:16.839Z,0.50
2023-01-18T05:45:43.670Z,0.60
2023-01-18T05:48:10.996Z,0.50
2023-01-18T05:50:43.816Z,0.30
2023-01-18T05:53:10.782Z,0.40
2023-01-18T05:55:37.348Z,0.60
2023-01-18T05:58:06.537Z,0.60
2023-01-18T06:00:35.764Z,0.50
2023-01-18T06:03:04.585Z,0.40
2023-01-18T06:05:31.517Z,0.50
2023-01-18T06:07:58.099Z,0.40
2023-01-18T06:10:24.641Z,0.40
2023-01-18T06:12:53.443Z,0.60
2023-01-18T06:15:22.194Z,0.60
2023-01-18T06:17:48.750Z,0.20
2023-01-18T06:20:18.112Z,0.30
2023-01-18T06:22:45.807Z,0.30
2023-01-18T06:25:12.493Z,0.40
2023-01-18T06:27:41.510Z,0.40
2023-01-18T06:30:10.918Z,0.60
2023-01-18T06:32:37.781Z,0.50
2023-01-18T06:35:04.539Z,0.40
2023-01-18T06:37:31.193Z,0.40
2023-01-18T06:39:57.821Z,0.30
2023-01-18T06:42:26.842Z,0.30
2023-01-18T06:44:53.391Z,0.40
2023-01-18T06:47:20.676Z,0.30
2023-01-18T06:49:50.227Z,0.50
2023-01-18T06:52:16.935Z,0.40
2023-01-18T06:54:48.162Z,0.30
2023-01-18T06:57:15.533Z,0.30
2023-01-18T06:59:42.072Z,0.30
2023-01-18T07:02:11.479Z,0.20
2023-01-18T07:04:43.976Z,0.20
2023-01-18T07:07:10.866Z,0.20
2023-01-18T07:09:39.947Z,0.30
2023-01-18T07:12:09.335Z,0.40
2023-01-18T07:14:35.959Z,0.30
2023-01-18T07:17:02.550Z,0.30
2023-01-18T07:19:29.479Z,0.30
2023-01-18T07:21:56.032Z,0.30
2023-01-18T07:24:28.746Z,0.40
2023-01-18T07:26:55.432Z,0.40
2023-01-18T07:29:22.223Z,0.30
2023-01-18T07:31:48.813Z,0.30
2023-01-18T07:34:15.448Z,0.10
2023-01-18T07:36:42.098Z,0.20
2023-01-18T07:39:13.815Z,0.10
2023-01-18T07:41:42.837Z,0.40
2023-01-18T07:44:10.596Z,0.30
2023-01-18T07:46:37.155Z,0.20
2023-01-18T07:49:05.741Z,0.10
2023-01-18T07:51:32.843Z,0.30
2023-01-18T07:54:02.052Z,0.40
2023-01-18T07:56:28.681Z,0.40
2023-01-18T07:58:55.678Z,0.30
2023-01-18T08:01:22.906Z,0.30
2023-01-18T08:03:53.525Z,0.30
2023-01-18T08:06:21.608Z,0.20
2023-01-18T08:08:48.156Z,0.20
2023-01-18T08:11:14.714Z,0.20
2023-01-18T08:13:43.501Z,0.20
2023-01-18T08:16:13.852Z,0.40
2023-01-18T08:18:40.454Z,0.40
2023-01-18T08:21:13.023Z,0.30
2023-01-18T08:23:42.083Z,0.50
2023-01-18T08:26:13.881Z,0.50
2023-01-18T08:28:41.571Z,0.40
2023-01-18T08:31:10.699Z,0.50
2023-01-18T08:33:38.495Z,0.50
2023-01-18T08:36:05.262Z,0.50
2023-01-18T08:38:31.866Z,0.40
2023-01-18T08:41:01.315Z,0.60
2023-01-18T08:43:30.163Z,0.60
2023-01-18T08:45:59.271Z,0.60
2023-01-18T08:48:26.015Z,0.80
2023-01-18T08:50:52.599Z,0.70
2023-01-18T08:53:19.240Z,0.80
2023-01-18T08:55:45.817Z,0.80
2023-01-18T08:58:12.622Z,0.90
2023-01-18T09:00:41.798Z,0.90
2023-01-18T09:03:08.430Z,1.00
2023-01-18T09:05:36.624Z,1.20
2023-01-18T09:08:03.334Z,1.00
2023-01-18T09:10:30.268Z,1.10
2023-01-18T09:12:57.292Z,0.90
2023-01-18T09:15:24.336Z,1.00
2023-01-18T09:17:52.742Z,1.10
2023-01-18T09:20:19.432Z,1.30
2023-01-18T09:22:48.307Z,1.10
2023-01-18T09:25:17.912Z,1.30
2023-01-18T09:27:46.506Z,1.10
2023-01-18T09:30:16.108Z,1.60
2023-01-18T09:32:42.796Z,1.30
2023-01-18T09:35:17.925Z,1.40
2023-01-18T09:37:47.764Z,1.60
2023-01-18T09:40:18.701Z,1.50
2023-01-18T09:42:45.889Z,1.50
2023-01-18T09:45:25.239Z,1.40
2023-01-18T09:47:55.452Z,1.60
2023-01-18T09:50:24.576Z,1.80
2023-01-18T09:52:57.953Z,1.70
2023-01-18T09:55:28.658Z,1.80
2023-01-18T09:57:58.018Z,1.80
2023-01-18T10:00:26.355Z,1.70
2023-01-18T10:02:55.576Z,1.70
2023-01-18T10:05:26.905Z,1.70
2023-01-18T10:08:04.671Z,1.80
2023-01-18T10:10:39.988Z,2.00
2023-01-18T10:13:06.523Z,1.90
2023-01-18T10:15:37.419Z,2.00
2023-01-18T10:18:03.959Z,2.20
2023-01-18T10:20:50.284Z,2.00
2023-01-18T10:23:39.202Z,2.20
2023-01-18T10:26:06.541Z,2.30
2023-01-18T10:28:48.826Z,2.20
2023-01-18T10:31:38.702Z,2.30
2023-01-18T10:34:16.334Z,2.20
2023-01-18T10:36:45.925Z,2.40
2023-01-18T10:39:27.925Z,2.20
2023-01-18T10:41:57.342Z,2.60
2023-01-18T10:44:23.981Z,2.70
2023-01-18T10:46:54.693Z,2.70
2023-01-18T10:49:41.250Z,2.60
2023-01-18T10:52:29.765Z,2.80
2023-01-18T10:55:09.238Z,2.60
2023-01-18T10:57:36.132Z,2.70
2023-01-18T11:00:12.312Z,2.90
2023-01-18T11:02:46.656Z,2.80
2023-01-18T11:05:29.462Z,2.90
2023-01-18T11:08:11.528Z,2.70
2023-01-18T11:10:41.647Z,2.90
2023-01-18T11:13:29.523Z,3.10
2023-01-18T11:16:12.726Z,3.10
2023-01-18T11:18:58.754Z,3.10
2023-01-18T11:21:26.184Z,3.20
2023-01-18T11:23:53.233Z,3.10
2023-01-18T11:26:21.689Z,2.90
2023-01-18T11:28:54.319Z,3.20
2023-01-18T11:31:23.110Z,3.40
2023-01-18T11:33:51.835Z,3.10
2023-01-18T11:36:19.703Z,3.30
2023-01-18T11:38:46.769Z,3.40
2023-01-18T11:41:19.100Z,3.20
2023-01-18T11:43:57.687Z,3.20
2023-01-18T11:46:43.821Z,3.20
2023-01-18T11:49:22.408Z,3.40
2023-01-18T11:51:57.735Z,3.30
2023-01-18T11:54:36.686Z,3.30
2023-01-18T11:57:03.911Z,3.30
2023-01-18T11:59:32.018Z,3.50
2023-01-18T12:02:18.779Z,3.50
2023-01-18T12:04:47.833Z,3.40
2023-01-18T12:07:23.506Z,3.60
2023-01-18T12:09:57.198Z,3.30
2023-01-18T12:12:32.061Z,3.60
2023-01-18T12:15:07.858Z,3.30
2023-01-18T12:17:46.063Z,3.60
2023-01-18T12:20:24.391Z,3.80
2023-01-18T12:22:54.129Z,3.80
2023-01-18T12:25:33.141Z,3.90
2023-01-18T12:28:20.000Z,4.00
2023-01-18T12:30:51.616Z,3.90
2023-01-18T12:33:43.375Z,3.80
2023-01-18T12:36:15.381Z,4.00
2023-01-18T12:38:48.656Z,3.90
2023-01-18T12:41:18.354Z,3.90
2023-01-18T12:43:44.904Z,4.00
2023-01-18T12:46:17.480Z,3.80
2023-01-18T12:48:51.339Z,3.80
2023-01-18T12:51:20.702Z,3.90
2023-01-18T12:54:02.435Z,3.80
2023-01-18T12:56:35.840Z,3.90
2023-01-18T12:59:05.452Z,3.60
2023-01-18T13:01:36.364Z,3.90
2023-01-18T13:04:09.680Z,3.90
2023-01-18T13:06:37.662Z,3.90
2023-01-18T13:09:06.912Z,3.90
2023-01-18T13:11:35.465Z,3.90
2023-01-18T13:14:07.042Z,3.90
2023-01-18T13:16:39.829Z,3.80
2023-01-18T13:19:10.850Z,4.00
2023-01-18T13:21:56.245Z,4.10
2023-01-18T13:24:28.702Z,3.80
2023-01-18T13:27:17.524Z,3.90
2023-01-18T13:29:47.983Z,3.80
2023-01-18T13:32:33.086Z,4.00
2023-01-18T13:35:19.720Z,3.90
2023-01-18T13:37:56.085Z,3.80
2023-01-18T13:40:25.542Z,3.70
2023-01-18T13:42:52.256Z,3.60
2023-01-18T13:45:23.157Z,3.90
2023-01-18T13:47:51.408Z,3.70
2023-01-18T13:50:23.803Z,3.80
2023-01-18T13:53:10.287Z,3.90
2023-01-18T13:55:36.926Z,3.80
2023-01-18T13:58:03.471Z,3.60
2023-01-18T14:00:31.016Z,3.80
2023-01-18T14:03:06.062Z,4.00
2023-01-18T14:05:42.229Z,3.90
2023-01-18T14:08:17.503Z,3.80
2023-01-18T14:10:47.911Z,3.80
2023-01-18T14:13:17.763Z,3.70
2023-01-18T14:15:54.498Z,3.60
2023-01-18T14:18:25.852Z,3.90
2023-01-18T14:20:55.141Z,4.00
2023-01-18T14:23:30.475Z,4.00
2023-01-18T14:26:02.390Z,3.70
2023-01-18T14:28:46.300Z,3.80
2023-01-18T14:31:17.257Z,3.90
2023-01-18T14:33:46.650Z,3.90
2023-01-18T14:36:24.414Z,3.70
2023-01-18T14:39:07.221Z,3.60
2023-01-18T14:41:34.295Z,3.80
2023-01-18T14:44:00.874Z,3.90
2023-01-18T14:46:27.994Z,3.70
2023-01-18T14:48:57.076Z,3.80
2023-01-18T14:51:24.900Z,3.80
2023-01-18T14:53:57.800Z,3.80
2023-01-18T14:56:25.888Z,3.70
2023-01-18T14:59:05.830Z,3.60
2023-01-18T15:01:34.901Z,3.60
2023-01-18T15:04:02.494Z,3.70
2023-01-18T15:06:29.033Z,3.60
2023-01-18T15:08:55.779Z,3.60
2023-01-18T15:11:23.954Z,3.50
2023-01-18T15:13:54.204Z,3.60
2023-01-18T15:16:32.676Z,3.60
2023-01-18T15:19:01.549Z,3.50
2023-01-18T15:21:32.627Z,3.50
2023-01-18T15:24:02.641Z,3.30
2023-01-18T15:26:44.544Z,3.50
2023-01-18T15:29:18.292Z,3.60
2023-01-18T15:31:55.723Z,3.40
2023-01-18T15:34:32.917Z,3.50
2023-01-18T15:37:00.697Z,3.30
2023-01-18T15:39:27.399Z,3.30
2023-01-18T15:41:56.811Z,3.30
2023-01-18T15:44:29.510Z,3.20
2023-01-18T15:46:56.240Z,3.30
2023-01-18T15:49:22.832Z,3.30
2023-01-18T15:51:57.026Z,3.20
2023-01-18T15:54:27.931Z,3.40
2023-01-18T15:56:58.775Z,3.10
2023-01-18T15:59:26.973Z,3.30
2023-01-18T16:02:04.365Z,3.00
2023-01-18T16:04:31.267Z,3.10
2023-01-18T16:06:58.469Z,2.90
2023-01-18T16:09:25.146Z,3.00
2023-01-18T16:11:54.022Z,3.00
2023-01-18T16:14:31.669Z,3.00
2023-01-18T16:17:02.139Z,2.90
2023-01-18T16:19:34.647Z,2.90
2023-01-18T16:22:02.939Z,2.80
2023-01-18T16:24:31.698Z,2.60
2023-01-18T16:27:00.244Z,2.70
2023-01-18T16:29:27.080Z,2.70
2023-01-18T16:32:13.732Z,2.90
2023-01-18T16:34:42.678Z,2.70
2023-01-18T16:37:11.746Z,2.60
2023-01-18T16:39:40.803Z,2.50
2023-01-18T16:42:11.573Z,2.50
2023-01-18T16:44:38.651Z,2.40
2023-01-18T16:47:11.868Z,2.50
2023-01-18T16:49:41.631Z,2.40
2023-01-18T16:52:12.675Z,2.30
2023-01-18T16:54:43.614Z,2.50
2023-01-18T16:57:17.595Z,2.20
2023-01-18T16:59:44.238Z,2.40
2023-01-18T17:02:11.415Z,2.20
2023-01-18T17:04:40.715Z,2.10
2023-01-18T17:07:10.857Z,2.10
2023-01-18T17:09:48.491Z,1.90
2023-01-18T17:12:18.980Z,2.10
2023-01-18T17:14:45.615Z,2.20
2023-01-18T17:17:12.315Z,2.10
2023-01-18T17:19:40.567Z,2.00
2023-01-18T17:22:07.148Z,2.00
2023-01-18T17:24:33.900Z,2.00
2023-01-18T17:27:01.264Z,2.10
2023-01-18T17:29:28.134Z,2.00
2023-01-18T17:31:54.854Z,1.80
2023-01-18T17:34:27.402Z,2.10
2023-01-18T17:36:55.187Z,1.80
2023-01-18T17:39:22.973Z,1.90
2023-01-18T17:41:49.600Z,1.90
2023-01-18T17:44:16.148Z,1.90
2023-01-18T17:46:42.856Z,1.90
2023-01-18T17:49:09.542Z,2.00
2023-01-18T17:51:38.566Z,1.80
2023-01-18T17:54:10.235Z,1.80
2023-01-18T17:56:39.646Z,1.80
2023-01-18T17:59:10.291Z,1.70
2023-01-18T18:01:36.921Z,1.70
2023-01-18T18:04:03.818Z,1.70
2023-01-18T18:06:33.770Z,1.50
2023-01-18T18:09:01.960Z,1.60
2023-01-18T18:11:28.655Z,1.50
2023-01-18T18:13:58.866Z,1.80
2023-01-18T18:16:27.821Z,1.70
2023-01-18T18:18:54.439Z,1.60
2023-01-18T18:21:23.189Z,1.70
2023-01-18T18:23:50.549Z,1.80
2023-01-18T18:26:19.077Z,1.50
2023-01-18T18:28:45.686Z,1.80
2023-01-18T18:31:16.210Z,1.60
2023-01-18T18:33:42.825Z,1.70
2023-01-18T18:36:09.458Z,1.50
2023-01-18T18:38:46.056Z,1.40
2023-01-18T18:41:15.148Z,1.60
2023-01-18T18:43:41.816Z,1.40
2023-01-18T18:46:08.504Z,1.60
2023-01-18T18:48:35.198Z,1.40
2023-01-18T18:51:01.772Z,1.40
2023-01-18T18:53:38.537Z,1.60
2023-01-18T18:56:10.071Z,1.60
2023-01-18T18:58:37.384Z,1.70
2023-01-18T19:01:05.225Z,1.50
2023-01-18T19:03:34.506Z,1.50
2023-01-18T19:06:01.099Z,1.60
2023-01-18T19:08:27.726Z,1.60
2023-01-18T19:10:54.527Z,1.40
2023-01-18T19:13:21.200Z,1.30
2023-01-18T19:15:48.414Z,1.10
2023-01-18T19:18:15.443Z,1.20
2023-01-18T19:20:42.032Z,1.30
2023-01-18T19:23:11.564Z,1.40
2023-01-18T19:25:38.773Z,1.40
2023-01-18T19:28:05.443Z,1.10
2023-01-18T19:30:33.330Z,1.20
2023-01-18T19:33:00.656Z,1.00
2023-01-18T19:35:27.303Z,1.10
2023-01-18T19:37:54.442Z,1.10
2023-01-18T19:40:21.553Z,1.00
2023-01-18T19:42:54.599Z,1.10
2023-01-18T19:45:28.280Z,1.30
2023-01-18T19:47:58.493Z,1.10
2023-01-18T19:50:30.800Z,1.10
2023-01-18T19:52:58.110Z,1.10
2023-01-18T19:55:25.326Z,1.10
2023-01-18T19:57:54.477Z,1.10
2023-01-18T20:00:21.238Z,1.10
2023-01-18T20:02:48.124Z,0.90
2023-01-18T20:05:14.795Z,1.00
2023-01-18T20:07:41.331Z,1.10
2023-01-18T20:10:08.175Z,1.10
2023-01-18T20:12:34.978Z,1.00
2023-01-18T20:15:01.712Z,0.90
2023-01-18T20:17:28.277Z,0.80
2023-01-18T20:19:54.854Z,0.70
2023-01-18T20:22:23.971Z,0.70
2023-01-18T20:24:50.549Z,0.60
2023-01-18T20:27:19.691Z,0.90
2023-01-18T20:29:46.540Z,0.50
2023-01-18T20:32:17.778Z,0.60
2023-01-18T20:34:46.444Z,0.40
2023-01-18T20:37:13.468Z,0.60
2023-01-18T20:39:40.091Z,0.40
2023-01-18T20:42:06.659Z,0.40
2023-01-18T20:44:35.940Z,0.70
2023-01-18T20:47:02.563Z,0.50
2023-01-18T20:49:37.653Z,0.60
2023-01-18T20:52:05.140Z,0.40
2023-01-18T20:54:31.804Z,0.10
2023-01-18T20:57:06.166Z,0.30
2023-01-18T20:59:33.009Z,0.10
2023-01-18T21:02:02.561Z,0.00
2023-01-18T21:04:29.218Z,0.20
2023-01-18T21:06:57.217Z,0.30
2023-01-18T21:09:24.249Z,0.20
2023-01-18T21:11:51.098Z,0.30
2023-01-18T21:14:20.386Z,0.20
2023-01-18T21:16:47.140Z,0.10
2023-01-18T21:19:13.802Z,0.30
2023-01-18T21:21:43.077Z,0.30
2023-01-18T21:24:09.644Z,0.20
2023-01-18T21:26:38.438Z,0.20
2023-01-18T21:29:09.501Z,0.20
2023-01-18T21:31:40.143Z,0.20
2023-01-18T21:34:07.648Z,0.20
2023-01-18T21:36:34.348Z,0.20
2023-01-18T21:39:00.964Z,0.00
2023-01-18T21:41:46.397Z,0.20
2023-01-18T21:44:34.122Z,0.10
2023-01-18T21:47:01.020Z,0.00
2023-01-18T21:50:15.415Z,-3276.70
2023-01-18T21:52:55.818Z,-3276.70
2023-01-18T21:55:25.338Z,0.00
2023-01-18T21:58:10.765Z,-3276.70
2023-01-18T22:00:38.168Z,0.00
2023-01-18T22:03:04.886Z,0.00
2023-01-18T22:05:31.552Z,0.00
2023-01-18T22:07:58.467Z,0.00
2023-01-18T22:10:25.270Z,0.00
2023-01-18T22:12:54.329Z,0.00
2023-01-18T22:15:23.125Z,-3276.70
2023-01-18T22:17:49.722Z,-3276.70
2023-01-18T22:20:16.594Z,0.00
2023-01-18T22:22:43.140Z,-3276.70
2023-01-18T22:25:12.294Z,-3276.60
2023-01-18T22:27:38.828Z,-3276.50
2023-01-18T22:30:05.989Z,-3276.70
2023-01-18T22:32:33.527Z,0.00
2023-01-18T22:35:00.086Z,-3276.70
2023-01-18T22:37:27.630Z,-3276.70
2023-01-18T22:39:57.355Z,-3276.60
2023-01-18T22:42:27.445Z,-3276.70
2023-01-18T22:44:54.007Z,-3276.60
2023-01-18T22:47:20.767Z,-3276.70
2023-01-18T22:49:47.378Z,-3276.40
2023-01-18T22:52:14.004Z,-3276.70
2023-01-18T22:54:41.579Z,-3276.40
2023-01-18T22:57:10.442Z,-3276.60
2023-01-18T22:59:37.019Z,-3276.70
2023-01-18T23:02:03.656Z,0.00
2023-01-18T23:04:31.348Z,0.00
2023-01-18T23:07:00.744Z,-3276.60
2023-01-18T23:09:27.559Z,-3276.70
2023-01-18T23:11:59.125Z,-3276.50
2023-01-18T23:14:45.662Z,-3276.60
2023-01-18T23:17:30.727Z,-3276.60
2023-01-18T23:19:59.874Z,-3276.70
2023-01-18T23:22:26.632Z,-3276.60
2023-01-18T23:24:53.395Z,-3276.40
2023-01-18T23:27:19.982Z,-3276.70
2023-01-18T23:29:57.204Z,-3276.50
2023-01-18T23:32:27.791Z,-3276.50
2023-01-18T23:34:55.328Z,-3276.50
2023-01-18T23:37:22.226Z,-3276.50
2023-01-18T23:40:07.547Z,-3276.60
2023-01-18T23:42:52.830Z,-3276.50
2023-01-18T23:45:37.889Z,-3276.50
2023-01-18T23:48:26.830Z,-3276.50
2023-01-18T23:51:12.077Z,-3276.40
2023-01-18T23:53:57.153Z,-3276.50
2023-01-18T23:56:23.959Z,-3276.50
2023-01-18T23:58:50.498Z,-3276.60
